createdAt,value
2019-05-05T00:01:20.039Z,99.90
2019-05-05T00:04:04.949Z,99.90
2019-05-05T00:06:37.578Z,99.90
2019-05-05T00:09:09.246Z,99.90
2019-05-05T00:11:51.876Z,99.90
2019-05-05T00:14:39.072Z,99.90
2019-05-05T00:17:15.056Z,99.90
2019-05-05T00:19:49.887Z,99.90
2019-05-05T00:22:24.443Z,99.90
2019-05-05T00:24:55.683Z,99.90
2019-05-05T00:27:30.945Z,99.90
2019-05-05T00:30:05.510Z,99.90
2019-05-05T00:32:38.368Z,99.90
2019-05-05T00:35:10.742Z,99.90
2019-05-05T00:37:45.143Z,99.90
2019-05-05T00:40:20.071Z,99.90
2019-05-05T00:42:50.802Z,99.90
2019-05-05T00:45:20.130Z,99.90
2019-05-05T00:47:54.633Z,99.90
2019-05-05T00:50:27.499Z,99.90
2019-05-05T00:53:01.615Z,99.90
2019-05-05T00:55:31.773Z,99.90
2019-05-05T00:58:01.833Z,99.90
2019-05-05T01:00:57.451Z,99.90
2019-05-05T01:03:31.689Z,99.90
2019-05-05T01:06:14.969Z,99.90
2019-05-05T01:08:48.199Z,99.90
2019-05-05T01:11:21.667Z,99.90
2019-05-05T01:13:54.814Z,99.90
2019-05-05T01:16:27.074Z,99.90
2019-05-05T01:19:01.796Z,99.90
2019-05-05T01:21:35.391Z,99.90
2019-05-05T01:24:09.367Z,99.90
2019-05-05T01:26:44.590Z,99.90
2019-05-05T01:29:17.376Z,99.90
2019-05-05T01:31:51.616Z,99.90
2019-05-05T01:34:32.224Z,99.90
2019-05-05T01:37:17.491Z,99.90
2019-05-05T01:39:56.268Z,99.90
2019-05-05T01:42:27.327Z,99.90
2019-05-05T01:44:59.542Z,99.90
2019-05-05T01:47:52.205Z,99.90
2019-05-05T01:50:25.121Z,99.90
2019-05-05T01:52:57.568Z,99.90
2019-05-05T01:55:29.060Z,99.90
2019-05-05T01:58:04.765Z,99.90
2019-05-05T02:00:39.727Z,99.90
2019-05-05T02:03:14.805Z,99.90
2019-05-05T02:05:50.019Z,99.90
2019-05-05T02:08:24.521Z,99.90
2019-05-05T02:10:58.307Z,99.90
2019-05-05T02:13:36.715Z,99.90
2019-05-05T02:16:06.894Z,99.90
2019-05-05T02:18:40.515Z,99.90
2019-05-05T02:21:15.107Z,99.90
2019-05-05T02:24:06.335Z,99.90
2019-05-05T02:27:15.911Z,99.90
2019-05-05T02:30:26.729Z,99.90
2019-05-05T02:33:06.296Z,99.90
2019-05-05T02:35:40.289Z,99.90
2019-05-05T02:38:15.370Z,99.90
2019-05-05T02:40:47.435Z,99.90
2019-05-05T02:43:21.414Z,99.90
2019-05-05T02:46:21.495Z,99.90
2019-05-05T02:48:55.615Z,99.90
2019-05-05T02:51:31.178Z,99.90
2019-05-05T02:54:06.112Z,99.90
2019-05-05T02:56:53.992Z,99.90
2019-05-05T02:59:35.932Z,99.90
2019-05-05T03:02:14.576Z,99.90
2019-05-05T03:04:46.854Z,99.90
2019-05-05T03:07:20.356Z,99.90
2019-05-05T03:09:54.586Z,99.90
2019-05-05T03:12:29.895Z,99.90
2019-05-05T03:15:04.201Z,99.90
2019-05-05T03:17:36.418Z,99.90
2019-05-05T03:20:06.326Z,99.90
2019-05-05T03:22:39.270Z,99.90
2019-05-05T03:25:09.675Z,99.90
2019-05-05T03:27:40.177Z,99.90
2019-05-05T03:30:15.429Z,99.90
2019-05-05T03:32:46.584Z,99.90
2019-05-05T03:35:20.097Z,99.90
2019-05-05T03:37:56.479Z,99.90
2019-05-05T03:40:31.134Z,99.90
2019-05-05T03:43:09.244Z,99.90
2019-05-05T03:45:49.566Z,99.90
2019-05-05T03:48:24.078Z,99.90
2019-05-05T03:50:59.939Z,99.90
2019-05-05T03:53:34.270Z,99.90
2019-05-05T03:56:10.399Z,99.90
2019-05-05T03:58:45.335Z,99.90
2019-05-05T04:01:58.148Z,99.90
2019-05-05T04:04:38.035Z,99.90
2019-05-05T04:07:13.824Z,99.90
2019-05-05T04:09:55.519Z,99.90
2019-05-05T04:12:27.841Z,99.90
2019-05-05T04:15:01.188Z,99.90
2019-05-05T04:17:53.497Z,99.90
2019-05-05T04:20:33.779Z,99.90
2019-05-05T04:23:05.919Z,99.90
2019-05-05T04:25:38.750Z,99.90
2019-05-05T04:28:13.631Z,99.90
2019-05-05T04:30:47.203Z,99.90
2019-05-05T04:33:20.734Z,99.90
2019-05-05T04:35:56.384Z,99.90
2019-05-05T04:38:29.778Z,99.90
2019-05-05T04:41:03.529Z,99.90
2019-05-05T04:43:43.995Z,99.90
2019-05-05T04:46:17.651Z,99.90
2019-05-05T04:49:24.689Z,99.90
2019-05-05T04:52:00.415Z,99.90
2019-05-05T04:54:43.819Z,99.90
2019-05-05T04:57:16.475Z,99.90
2019-05-05T04:59:50.538Z,99.90
2019-05-05T05:02:34.895Z,99.90
2019-05-05T05:05:24.457Z,99.90
2019-05-05T05:07:58.181Z,99.90
2019-05-05T05:10:34.613Z,99.90
2019-05-05T05:13:09.055Z,99.90
2019-05-05T05:15:44.493Z,99.90
2019-05-05T05:18:19.968Z,99.90
2019-05-05T05:20:54.960Z,99.90
2019-05-05T05:23:29.782Z,99.90
2019-05-05T05:26:00.216Z,99.90
2019-05-05T05:28:34.235Z,99.90
2019-05-05T05:31:06.624Z,99.90
2019-05-05T05:33:44.584Z,99.90
2019-05-05T05:36:17.611Z,99.90
2019-05-05T05:38:54.495Z,99.90
2019-05-05T05:41:45.960Z,99.90
2019-05-05T05:44:35.522Z,99.90
2019-05-05T05:47:30.510Z,99.90
2019-05-05T05:50:14.368Z,99.90
2019-05-05T05:52:46.722Z,99.90
2019-05-05T05:55:23.669Z,99.90
2019-05-05T05:57:57.227Z,99.90
2019-05-05T06:00:30.046Z,99.90
2019-05-05T06:03:00.911Z,99.90
2019-05-05T06:05:31.292Z,99.90
2019-05-05T06:08:09.958Z,99.90
2019-05-05T06:10:44.305Z,99.90
2019-05-05T06:13:17.356Z,99.90
2019-05-05T06:15:50.656Z,99.90
2019-05-05T06:18:24.938Z,99.90
2019-05-05T06:20:56.115Z,99.90
2019-05-05T06:23:26.806Z,99.90
2019-05-05T06:25:57.568Z,99.90
2019-05-05T06:28:34.027Z,99.90
2019-05-05T06:31:05.738Z,99.90
2019-05-05T06:33:38.783Z,99.90
2019-05-05T06:36:11.774Z,99.90
2019-05-05T06:38:45.938Z,99.90
2019-05-05T06:41:34.190Z,99.90
2019-05-05T06:44:24.813Z,99.90
2019-05-05T06:47:10.087Z,99.90
2019-05-05T06:49:43.880Z,99.90
2019-05-05T06:52:14.682Z,99.90
2019-05-05T06:54:45.497Z,99.90
2019-05-05T06:57:17.824Z,99.90
2019-05-05T06:59:51.911Z,99.90
2019-05-05T07:02:23.821Z,99.90
2019-05-05T07:04:54.936Z,99.90
2019-05-05T07:07:25.977Z,99.90
2019-05-05T07:09:57.605Z,99.90
2019-05-05T07:12:34.585Z,99.90
2019-05-05T07:15:05.929Z,99.90
2019-05-05T07:17:36.288Z,99.90
2019-05-05T07:20:09.649Z,99.90
2019-05-05T07:22:57.981Z,99.90
2019-05-05T07:25:20.103Z,99.90
2019-05-05T07:27:54.667Z,99.90
2019-05-05T07:30:26.027Z,99.90
2019-05-05T07:32:57.039Z,99.90
2019-05-05T07:35:56.749Z,99.90
2019-05-05T07:38:19.810Z,99.90
2019-05-05T07:40:51.165Z,99.90
2019-05-05T07:43:23.960Z,99.90
2019-05-05T07:45:58.115Z,99.90
2019-05-05T07:48:33.459Z,99.90
2019-05-05T07:51:05.515Z,99.90
2019-05-05T07:53:41.368Z,99.90
2019-05-05T07:56:15.587Z,99.90
2019-05-05T07:58:50.376Z,99.90
2019-05-05T08:01:24.458Z,99.90
2019-05-05T08:03:55.755Z,99.90
2019-05-05T08:06:26.399Z,99.90
2019-05-05T08:08:56.722Z,99.90
2019-05-05T08:11:26.065Z,99.90
2019-05-05T08:13:56.667Z,99.90
2019-05-05T08:16:48.171Z,99.90
2019-05-05T08:19:40.871Z,99.90
2019-05-05T08:22:14.417Z,99.90
2019-05-05T08:25:00.271Z,99.90
2019-05-05T08:27:53.714Z,99.90
2019-05-05T08:30:44.879Z,99.90
2019-05-05T08:33:17.407Z,99.90
2019-05-05T08:35:51.307Z,99.90
2019-05-05T08:38:24.491Z,99.90
2019-05-05T08:40:57.312Z,99.90
2019-05-05T08:43:30.566Z,99.90
2019-05-05T08:46:04.875Z,99.90
2019-05-05T08:48:40.478Z,99.90
2019-05-05T08:51:10.830Z,99.90
2019-05-05T08:53:47.423Z,99.90
2019-05-05T08:56:17.731Z,99.90
2019-05-05T08:58:50.068Z,99.90
2019-05-05T09:01:25.089Z,99.90
2019-05-05T09:04:04.104Z,99.90
2019-05-05T09:06:39.574Z,99.90
2019-05-05T09:09:10.459Z,99.30
2019-05-05T09:11:43.943Z,99.40
2019-05-05T09:14:18.821Z,99.90
2019-05-05T09:16:53.760Z,97.00
2019-05-05T09:19:26.344Z,96.70
2019-05-05T09:21:59.527Z,95.60
2019-05-05T09:24:49.378Z,96.80
2019-05-05T09:27:40.072Z,96.70
2019-05-05T09:30:15.050Z,96.50
2019-05-05T09:32:48.360Z,95.40
2019-05-05T09:35:24.052Z,97.00
2019-05-05T09:37:58.719Z,96.10
2019-05-05T09:40:41.345Z,95.40
2019-05-05T09:43:15.170Z,94.00
2019-05-05T09:45:48.744Z,94.40
2019-05-05T09:48:20.927Z,94.00
2019-05-05T09:50:54.637Z,93.50
2019-05-05T09:53:29.747Z,92.20
2019-05-05T09:56:01.557Z,91.60
2019-05-05T09:58:36.543Z,92.70
2019-05-05T10:01:09.479Z,92.70
2019-05-05T10:03:39.820Z,89.60
2019-05-05T10:06:14.269Z,87.80
2019-05-05T10:08:53.757Z,84.10
2019-05-05T10:11:25.727Z,87.50
2019-05-05T10:13:57.456Z,87.20
2019-05-05T10:16:27.755Z,85.20
2019-05-05T10:19:04.415Z,85.30
2019-05-05T10:21:40.352Z,82.50
2019-05-05T10:24:30.630Z,81.90
2019-05-05T10:27:00.864Z,79.30
2019-05-05T10:29:34.626Z,79.20
2019-05-05T10:32:08.547Z,71.50
2019-05-05T10:34:41.187Z,66.20
2019-05-05T10:37:16.167Z,67.60
2019-05-05T10:39:51.325Z,64.90
2019-05-05T10:42:24.413Z,64.10
2019-05-05T10:44:54.802Z,63.90
2019-05-05T10:47:26.305Z,62.60
2019-05-05T10:50:01.988Z,65.10
2019-05-05T10:52:33.748Z,62.30
2019-05-05T10:55:05.251Z,64.00
2019-05-05T10:57:39.051Z,63.40
2019-05-05T11:00:13.192Z,58.20
2019-05-05T11:02:42.278Z,58.30
2019-05-05T11:05:12.582Z,60.70
2019-05-05T11:07:46.497Z,60.50
2019-05-05T11:10:24.765Z,61.90
2019-05-05T11:13:02.738Z,59.00
2019-05-05T11:15:37.441Z,59.00
2019-05-05T11:18:14.841Z,58.20
2019-05-05T11:20:48.127Z,58.80
2019-05-05T11:23:20.355Z,58.70
2019-05-05T11:25:54.514Z,58.70
2019-05-05T11:28:28.486Z,57.30
2019-05-05T11:30:58.571Z,57.60
2019-05-05T11:33:54.272Z,56.40
2019-05-05T11:36:47.351Z,57.40
2019-05-05T11:39:18.361Z,56.90
2019-05-05T11:41:51.911Z,56.80
2019-05-05T11:44:25.599Z,56.20
2019-05-05T11:46:56.468Z,56.70
2019-05-05T11:49:26.780Z,55.30
2019-05-05T11:52:04.476Z,56.40
2019-05-05T11:54:34.479Z,54.50
2019-05-05T11:57:06.722Z,54.20
2019-05-05T11:59:40.124Z,54.20
2019-05-05T12:02:14.129Z,55.90
2019-05-05T12:04:47.946Z,54.10
2019-05-05T12:07:21.067Z,53.30
2019-05-05T12:09:58.188Z,51.60
2019-05-05T12:12:33.571Z,51.50
2019-05-05T12:15:04.404Z,50.50
2019-05-05T12:17:44.067Z,49.40
2019-05-05T12:20:19.943Z,50.60
2019-05-05T12:22:54.785Z,49.30
2019-05-05T12:25:50.515Z,50.30
2019-05-05T12:28:54.536Z,47.70
2019-05-05T12:31:30.118Z,48.00
2019-05-05T12:34:03.987Z,48.80
2019-05-05T12:36:37.954Z,49.10
2019-05-05T12:39:14.846Z,49.60
2019-05-05T12:41:47.343Z,49.10
2019-05-05T12:44:26.480Z,49.70
2019-05-05T12:47:29.063Z,50.10
2019-05-05T12:50:02.979Z,50.90
2019-05-05T12:52:35.660Z,50.00
2019-05-05T12:55:11.616Z,49.60
2019-05-05T12:57:45.667Z,49.20
2019-05-05T13:00:21.519Z,48.20
2019-05-05T13:02:54.835Z,48.00
2019-05-05T13:05:28.958Z,45.10
2019-05-05T13:08:01.184Z,45.20
2019-05-05T13:10:36.192Z,43.90
2019-05-05T13:13:10.435Z,44.00
2019-05-05T13:15:40.446Z,45.50
2019-05-05T13:18:10.652Z,44.50
2019-05-05T13:20:53.768Z,45.20
2019-05-05T13:23:48.008Z,45.80
2019-05-05T13:26:37.919Z,45.80
2019-05-05T13:29:13.965Z,45.30
2019-05-05T13:31:47.855Z,45.90
2019-05-05T13:34:21.634Z,45.90
2019-05-05T13:36:54.949Z,44.60
2019-05-05T13:39:28.624Z,45.60
2019-05-05T13:42:01.804Z,45.80
2019-05-05T13:45:14.482Z,45.20
2019-05-05T13:47:48.165Z,44.30
2019-05-05T13:50:26.858Z,43.60
2019-05-05T13:53:00.647Z,43.90
2019-05-05T13:55:34.793Z,45.30
2019-05-05T13:58:09.025Z,44.00
2019-05-05T14:00:44.134Z,44.70
2019-05-05T14:03:19.251Z,44.50
2019-05-05T14:05:54.088Z,44.60
2019-05-05T14:08:27.939Z,45.30
2019-05-05T14:11:03.543Z,45.90
2019-05-05T14:13:39.652Z,46.10
2019-05-05T14:16:21.890Z,46.10
2019-05-05T14:18:59.166Z,46.40
2019-05-05T14:21:33.813Z,46.40
2019-05-05T14:24:34.001Z,46.70
2019-05-05T14:27:04.602Z,46.10
2019-05-05T14:29:56.756Z,47.00
2019-05-05T14:32:34.561Z,48.40
2019-05-05T14:35:30.111Z,46.70
2019-05-05T14:38:07.108Z,45.70
2019-05-05T14:40:44.557Z,47.20
2019-05-05T14:43:17.319Z,46.20
2019-05-05T14:45:49.696Z,45.70
2019-05-05T14:48:24.245Z,45.20
2019-05-05T14:51:00.290Z,46.60
2019-05-05T14:53:39.882Z,45.30
2019-05-05T14:56:13.678Z,46.30
2019-05-05T14:58:48.738Z,44.20
2019-05-05T15:01:24.780Z,43.50
2019-05-05T15:03:57.411Z,44.30
2019-05-05T15:06:36.522Z,43.20
2019-05-05T15:09:30.283Z,43.80
2019-05-05T15:12:34.171Z,43.40
2019-05-05T15:15:10.177Z,43.90
2019-05-05T15:17:43.301Z,43.40
2019-05-05T15:20:15.232Z,43.50
2019-05-05T15:22:45.244Z,43.00
2019-05-05T15:25:18.238Z,43.40
2019-05-05T15:27:54.183Z,43.40
2019-05-05T15:30:27.294Z,42.30
2019-05-05T15:32:59.847Z,42.60
2019-05-05T15:35:33.973Z,43.30
2019-05-05T15:38:05.135Z,44.20
2019-05-05T15:40:36.035Z,43.90
2019-05-05T15:43:06.641Z,43.80
2019-05-05T15:45:37.034Z,43.60
2019-05-05T15:48:06.818Z,43.50
2019-05-05T15:50:39.968Z,44.20
2019-05-05T15:53:10.551Z,44.70
2019-05-05T15:55:42.052Z,44.80
2019-05-05T15:58:16.447Z,45.10
2019-05-05T16:00:53.677Z,45.60
2019-05-05T16:03:29.822Z,44.50
2019-05-05T16:06:05.378Z,44.30
2019-05-05T16:08:39.707Z,43.60
2019-05-05T16:11:14.439Z,43.50
2019-05-05T16:13:48.399Z,44.40
2019-05-05T16:16:26.381Z,44.70
2019-05-05T16:19:27.886Z,44.40
2019-05-05T16:22:00.182Z,43.90
2019-05-05T16:24:33.621Z,44.60
2019-05-05T16:27:18.620Z,44.10
2019-05-05T16:29:47.013Z,43.40
2019-05-05T16:32:22.034Z,42.90
2019-05-05T16:34:54.925Z,42.50
2019-05-05T16:37:30.403Z,41.90
2019-05-05T16:40:06.227Z,42.50
2019-05-05T16:42:38.795Z,43.00
2019-05-05T16:45:16.467Z,43.50
2019-05-05T16:47:51.232Z,47.00
2019-05-05T16:50:25.506Z,52.10
2019-05-05T16:53:04.127Z,55.10
2019-05-05T16:55:45.856Z,57.30
2019-05-05T16:58:19.687Z,59.10
2019-05-05T17:00:55.500Z,60.10
2019-05-05T17:03:29.827Z,62.10
2019-05-05T17:06:03.849Z,63.30
2019-05-05T17:08:37.114Z,64.10
2019-05-05T17:11:09.811Z,65.80
2019-05-05T17:14:05.522Z,67.10
2019-05-05T17:17:04.211Z,68.00
2019-05-05T17:19:51.166Z,69.30
2019-05-05T17:22:35.329Z,71.20
2019-05-05T17:25:10.694Z,72.00
2019-05-05T17:27:50.864Z,74.30
2019-05-05T17:30:20.767Z,75.80
2019-05-05T17:32:54.409Z,77.60
2019-05-05T17:35:26.695Z,78.80
2019-05-05T17:38:10.217Z,80.40
2019-05-05T17:41:00.779Z,82.70
2019-05-05T17:43:47.079Z,83.70
2019-05-05T17:46:47.904Z,84.80
2019-05-05T17:49:30.852Z,85.90
2019-05-05T17:52:19.122Z,86.20
2019-05-05T17:54:57.632Z,87.30
2019-05-05T17:57:30.435Z,87.50
2019-05-05T18:00:04.308Z,89.40
2019-05-05T18:02:38.623Z,89.10
2019-05-05T18:05:11.306Z,89.40
2019-05-05T18:07:45.955Z,89.20
2019-05-05T18:10:20.567Z,90.00
2019-05-05T18:13:09.862Z,90.30
2019-05-05T18:15:54.360Z,90.60
2019-05-05T18:18:25.883Z,90.80
2019-05-05T18:20:56.778Z,90.90
2019-05-05T18:23:28.831Z,91.50
2019-05-05T18:26:04.084Z,92.00
2019-05-05T18:28:39.692Z,92.90
2019-05-05T18:31:13.879Z,93.50
2019-05-05T18:33:47.584Z,94.10
2019-05-05T18:36:21.376Z,94.80
2019-05-05T18:38:54.017Z,96.60
2019-05-05T18:41:34.495Z,96.40
2019-05-05T18:44:16.679Z,97.40
2019-05-05T18:47:12.881Z,98.30
2019-05-05T18:49:43.878Z,99.60
2019-05-05T18:52:14.456Z,99.90
2019-05-05T18:54:46.405Z,99.90
2019-05-05T18:57:19.957Z,99.90
2019-05-05T18:59:54.225Z,99.90
2019-05-05T19:02:41.793Z,99.90
2019-05-05T19:05:34.721Z,99.90
2019-05-05T19:08:18.515Z,99.90
2019-05-05T19:10:54.206Z,99.90
2019-05-05T19:13:28.203Z,99.90
2019-05-05T19:16:03.692Z,99.90
2019-05-05T19:18:36.866Z,99.90
2019-05-05T19:21:17.049Z,99.90
2019-05-05T19:23:53.682Z,99.90
2019-05-05T19:26:27.520Z,99.90
2019-05-05T19:29:04.446Z,99.90
2019-05-05T19:31:37.336Z,99.90
2019-05-05T19:34:14.447Z,99.90
2019-05-05T19:36:47.749Z,99.90
2019-05-05T19:39:20.553Z,99.90
2019-05-05T19:41:54.683Z,99.90
2019-05-05T19:44:26.230Z,99.90
2019-05-05T19:47:21.292Z,99.90
2019-05-05T19:49:59.327Z,99.90
2019-05-05T19:52:31.430Z,99.90
2019-05-05T19:55:06.366Z,99.90
2019-05-05T19:57:39.106Z,99.90
2019-05-05T20:00:14.554Z,99.90
2019-05-05T20:02:54.871Z,99.90
2019-05-05T20:05:24.502Z,99.90
2019-05-05T20:08:00.458Z,99.90
2019-05-05T20:10:32.746Z,99.90
2019-05-05T20:13:06.494Z,99.90
2019-05-05T20:15:58.624Z,99.90
2019-05-05T20:18:31.313Z,99.90
2019-05-05T20:21:07.182Z,99.90
2019-05-05T20:23:39.175Z,99.90
2019-05-05T20:26:14.508Z,99.90
2019-05-05T20:28:47.884Z,99.90
2019-05-05T20:31:20.672Z,99.90
2019-05-05T20:34:10.622Z,99.90
2019-05-05T20:37:04.281Z,99.90
2019-05-05T20:39:35.178Z,99.90
2019-05-05T20:42:08.223Z,99.90
2019-05-05T20:44:43.710Z,99.90
2019-05-05T20:47:16.670Z,99.90
2019-05-05T20:49:46.588Z,99.90
2019-05-05T20:52:19.104Z,99.90
2019-05-05T20:54:53.737Z,99.90
2019-05-05T20:57:26.143Z,99.90
2019-05-05T20:59:59.456Z,99.90
2019-05-05T21:02:33.907Z,99.90
2019-05-05T21:05:14.570Z,99.90
2019-05-05T21:07:47.054Z,99.90
2019-05-05T21:10:19.364Z,99.90
2019-05-05T21:12:54.302Z,99.90
2019-05-05T21:15:29.128Z,99.90
2019-05-05T21:18:01.952Z,99.90
2019-05-05T21:20:36.549Z,99.90
2019-05-05T21:23:26.851Z,99.90
2019-05-05T21:26:05.056Z,99.90
2019-05-05T21:28:41.313Z,99.90
2019-05-05T21:31:16.097Z,99.90
2019-05-05T21:33:49.383Z,99.90
2019-05-05T21:36:24.290Z,99.90
2019-05-05T21:38:57.152Z,99.90
2019-05-05T21:41:31.304Z,99.90
2019-05-05T21:44:07.924Z,99.90
2019-05-05T21:46:43.770Z,99.90
2019-05-05T21:49:16.996Z,99.90
2019-05-05T21:52:14.576Z,99.90
2019-05-05T21:55:05.131Z,99.90
2019-05-05T21:58:07.904Z,99.90
2019-05-05T22:00:58.576Z,99.90
2019-05-05T22:03:50.404Z,99.90
2019-05-05T22:06:20.917Z,99.90
2019-05-05T22:08:54.025Z,99.90
2019-05-05T22:11:28.108Z,99.90
2019-05-05T22:14:04.239Z,99.90
2019-05-05T22:16:37.472Z,99.90
2019-05-05T22:19:10.827Z,99.90
2019-05-05T22:21:47.276Z,99.90
2019-05-05T22:24:21.253Z,99.90
2019-05-05T22:26:54.974Z,99.90
2019-05-05T22:29:29.090Z,99.90
2019-05-05T22:32:06.066Z,99.90
2019-05-05T22:34:36.199Z,99.90
2019-05-05T22:37:09.712Z,99.90
2019-05-05T22:39:44.544Z,99.90
2019-05-05T22:42:15.778Z,99.90
2019-05-05T22:44:52.641Z,99.90
2019-05-05T22:47:26.521Z,99.90
2019-05-05T22:49:58.923Z,99.90
2019-05-05T22:52:31.876Z,99.90
2019-05-05T22:55:05.792Z,99.90
2019-05-05T22:57:40.226Z,99.90
2019-05-05T23:00:26.021Z,99.90
2019-05-05T23:02:55.199Z,99.90
2019-05-05T23:05:44.473Z,99.90
2019-05-05T23:08:18.494Z,99.90
2019-05-05T23:10:50.695Z,99.90
2019-05-05T23:13:25.035Z,99.90
2019-05-05T23:16:26.488Z,99.90
2019-05-05T23:19:00.991Z,99.90
2019-05-05T23:21:43.850Z,99.90
2019-05-05T23:24:47.998Z,99.90
2019-05-05T23:27:44.021Z,99.90
2019-05-05T23:30:20.329Z,99.90
2019-05-05T23:32:54.915Z,99.90
2019-05-05T23:35:30.243Z,99.90
2019-05-05T23:38:05.896Z,99.90
2019-05-05T23:40:39.333Z,99.90
2019-05-05T23:43:13.911Z,99.90
2019-05-05T23:45:44.877Z,99.90
2019-05-05T23:48:16.812Z,99.90
2019-05-05T23:50:47.502Z,99.90
2019-05-05T23:53:19.195Z,99.90
2019-05-05T23:55:54.712Z,99.90
2019-05-05T23:58:28.677Z,99.90
